Time;durP1;ratioP1;P1;durP2;ratioP2;P2;SDS_P1;SDS_P2;PMS_P1;PMS_P2;Temp;Humidity;BMP_temperature;BMP_pressure;BME280_temperature;BME280_humidity;BME280_pressure;Samples;Min_cycle;Max_cycle;Signal;HPM_P1;HPM_P2
2022/02/15 00:00:35;;;;;;;9.70;2.35;;;3.60;99.90;;;;;;5024341;28;20029;-58
2022/02/15 00:03:00;;;;;;;18.23;2.63;;;3.60;99.90;;;;;;5016296;28;20023;-58
2022/02/15 00:05:26;;;;;;;10.25;2.33;;;3.60;99.90;;;;;;5014356;28;20447;-59
2022/02/15 00:07:52;;;;;;;8.88;2.95;;;3.70;99.90;;;;;;5015450;28;20119;-58
2022/02/15 00:10:17;;;;;;;12.13;1.95;;;3.70;99.90;;;;;;4998209;28;20038;-57
2022/02/15 00:12:43;;;;;;;12.95;2.08;;;3.90;99.90;;;;;;5020190;28;20091;-59
2022/02/15 00:15:11;;;;;;;10.88;2.33;;;4.00;99.90;;;;;;5029111;28;20065;-59
2022/02/15 00:17:38;;;;;;;9.38;2.70;;;4.10;99.90;;;;;;5023187;28;20030;-58
2022/02/15 00:20:06;;;;;;;8.02;1.85;;;4.20;99.90;;;;;;5021650;28;20045;-58
2022/02/15 00:22:32;;;;;;;12.15;2.22;;;4.30;99.90;;;;;;5022122;28;20025;-56
2022/02/15 00:24:57;;;;;;;10.10;2.00;;;4.40;99.90;;;;;;5017820;28;20368;-57
2022/02/15 00:27:23;;;;;;;14.90;2.40;;;4.40;99.90;;;;;;5020229;28;20088;-57
2022/02/15 00:29:49;;;;;;;9.57;2.00;;;4.50;99.90;;;;;;5019958;28;20424;-59
2022/02/15 00:32:15;;;;;;;7.65;1.95;;;4.60;99.90;;;;;;5018560;28;20026;-56
2022/02/15 00:34:40;;;;;;;10.05;2.33;;;4.70;99.90;;;;;;5009887;28;20029;-59
2022/02/15 00:37:06;;;;;;;11.80;2.08;;;4.70;99.90;;;;;;5016675;28;20369;-58
2022/02/15 00:39:32;;;;;;;11.50;2.78;;;4.80;99.90;;;;;;5023252;28;20058;-59
2022/02/15 00:41:57;;;;;;;11.02;3.03;;;4.90;99.90;;;;;;5021167;28;20032;-59
2022/02/15 00:44:23;;;;;;;8.32;2.15;;;4.90;99.90;;;;;;5021920;28;20090;-58
2022/02/15 00:46:49;;;;;;;10.13;2.38;;;5.00;99.90;;;;;;5014424;28;20040;-59
2022/02/15 00:49:14;;;;;;;12.43;2.55;;;5.00;99.90;;;;;;5014287;28;20038;-58
2022/02/15 00:51:40;;;;;;;12.85;2.60;;;5.10;99.90;;;;;;5024452;28;20163;-58
2022/02/15 00:54:05;;;;;;;6.90;2.25;;;5.10;99.90;;;;;;5019456;28;20600;-59
2022/02/15 00:56:31;;;;;;;6.05;2.40;;;5.10;99.90;;;;;;5024673;28;20096;-56
2022/02/15 00:58:57;;;;;;;10.32;2.67;;;5.20;99.90;;;;;;5024268;28;20029;-59
2022/02/15 01:01:22;;;;;;;10.35;1.90;;;5.20;99.90;;;;;;5022978;28;20868;-58
2022/02/15 01:03:48;;;;;;;10.75;2.28;;;5.30;99.90;;;;;;5017758;28;20026;-59
2022/02/15 01:06:15;;;;;;;13.40;2.17;;;5.30;99.90;;;;;;5019450;28;20483;-59
2022/02/15 01:08:42;;;;;;;8.23;2.15;;;5.30;99.90;;;;;;5024230;28;20164;-57
2022/02/15 01:11:09;;;;;;;9.57;2.22;;;5.30;99.90;;;;;;4998721;28;20128;-59
2022/02/15 01:13:35;;;;;;;15.02;2.13;;;5.40;99.90;;;;;;5023398;28;20479;-59
2022/02/15 01:16:01;;;;;;;8.00;2.80;;;5.40;99.90;;;;;;5020656;28;20036;-59
2022/02/15 01:18:28;;;;;;;11.95;2.65;;;5.40;99.90;;;;;;5024806;28;20025;-58
2022/02/15 01:20:54;;;;;;;16.02;2.08;;;5.40;99.90;;;;;;5019609;28;20018;-59
2022/02/15 01:23:20;;;;;;;10.90;2.97;;;5.40;99.90;;;;;;5014641;28;20030;-59
2022/02/15 01:25:46;;;;;;;8.27;2.10;;;5.40;99.90;;;;;;5013683;28;20034;-59
2022/02/15 01:28:11;;;;;;;14.23;4.18;;;5.40;99.90;;;;;;5011067;28;20030;-58
2022/02/15 01:30:37;;;;;;;7.38;2.30;;;5.40;99.90;;;;;;5011355;28;20021;-59
2022/02/15 01:33:03;;;;;;;14.93;2.70;;;5.40;99.90;;;;;;5012575;28;20492;-58
2022/02/15 01:35:28;;;;;;;11.25;2.67;;;5.40;99.90;;;;;;5019452;28;20045;-59
2022/02/15 01:37:54;;;;;;;6.68;2.50;;;5.40;99.90;;;;;;5013716;28;20064;-59
2022/02/15 01:40:20;;;;;;;10.38;2.80;;;5.40;99.90;;;;;;5026195;28;20021;-58
2022/02/15 01:42:45;;;;;;;10.90;2.25;;;5.40;99.90;;;;;;5012272;28;20096;-59
2022/02/15 01:45:12;;;;;;;9.20;2.53;;;5.50;99.90;;;;;;5010243;28;20038;-58
2022/02/15 01:47:39;;;;;;;6.72;2.30;;;5.50;99.90;;;;;;5014885;28;20034;-58
2022/02/15 01:50:05;;;;;;;6.88;1.75;;;5.50;99.90;;;;;;5031392;28;20036;-59
2022/02/15 01:52:32;;;;;;;6.80;2.03;;;5.50;99.90;;;;;;5019783;28;20041;-59
2022/02/15 01:54:59;;;;;;;6.90;2.05;;;5.50;99.90;;;;;;5011258;28;20022;-59
2022/02/15 01:57:25;;;;;;;12.63;2.20;;;5.50;99.90;;;;;;5014051;28;20040;-58
2022/02/15 01:59:55;;;;;;;9.63;2.17;;;5.50;99.90;;;;;;5017682;28;20069;-59
2022/02/15 02:02:22;;;;;;;10.95;2.05;;;5.50;99.90;;;;;;5021307;28;20026;-60
2022/02/15 02:07:31;;;;;;;9.32;2.30;;;5.50;99.90;;;;;;5027048;28;20087;-60
2022/02/15 02:09:57;;;;;;;7.82;2.35;;;5.50;99.90;;;;;;5029665;28;20402;-59
2022/02/15 02:12:23;;;;;;;9.18;2.38;;;5.50;99.90;;;;;;5012481;28;20053;-59
2022/02/15 02:14:59;;;;;;;7.75;2.03;;;5.50;99.90;;;;;;5026927;28;20680;-57
2022/02/15 02:17:25;;;;;;;3.92;1.60;;;5.50;99.90;;;;;;5019040;28;20072;-57
2022/02/15 02:19:55;;;;;;;8.23;1.90;;;5.60;99.90;;;;;;5029707;28;20029;-57
2022/02/15 02:22:25;;;;;;;9.75;2.65;;;5.50;99.90;;;;;;5022082;28;20040;-59
2022/02/15 02:24:51;;;;;;;13.15;1.73;;;5.60;99.90;;;;;;5025392;28;20040;-55
2022/02/15 02:27:21;;;;;;;9.38;2.28;;;5.60;99.90;;;;;;5022932;28;20057;-59
2022/02/15 02:29:49;;;;;;;9.82;2.38;;;5.60;99.90;;;;;;5024843;28;20029;-59
2022/02/15 02:32:15;;;;;;;12.45;2.00;;;5.60;99.90;;;;;;5021812;28;20053;-59
2022/02/15 02:34:40;;;;;;;5.07;1.73;;;5.60;99.90;;;;;;5026051;28;20049;-57
2022/02/15 02:37:06;;;;;;;12.15;2.00;;;5.60;99.90;;;;;;5028144;28;20480;-56
2022/02/15 02:39:31;;;;;;;11.77;1.85;;;5.60;99.90;;;;;;5026351;28;20588;-58
2022/02/15 02:41:57;;;;;;;14.70;2.95;;;5.60;99.90;;;;;;5029720;28;20025;-58
2022/02/15 02:44:22;;;;;;;8.02;1.95;;;5.70;99.90;;;;;;5026011;28;20022;-59
2022/02/15 02:46:48;;;;;;;9.90;2.33;;;5.70;99.90;;;;;;5025255;28;20022;-59
2022/02/15 02:49:13;;;;;;;8.27;2.67;;;5.70;99.90;;;;;;5026924;28;20414;-60
2022/02/15 02:51:39;;;;;;;8.63;2.20;;;5.70;99.90;;;;;;5022422;28;20025;-59
2022/02/15 02:54:04;;;;;;;7.80;3.50;;;5.70;99.90;;;;;;5027990;28;20052;-59
2022/02/15 02:56:30;;;;;;;15.55;3.38;;;5.70;99.90;;;;;;5027999;28;20529;-59
2022/02/15 02:58:55;;;;;;;10.00;1.90;;;5.70;99.90;;;;;;5029309;28;20033;-59
2022/02/15 03:01:21;;;;;;;11.20;2.70;;;5.70;99.90;;;;;;5019668;28;20036;-59
2022/02/15 03:03:47;;;;;;;11.38;2.17;;;5.70;99.90;;;;;;5024999;28;20025;-58
2022/02/15 03:06:12;;;;;;;7.50;1.80;;;5.70;99.90;;;;;;5028274;28;20065;-59
2022/02/15 03:08:38;;;;;;;14.32;2.35;;;5.70;99.90;;;;;;5017098;28;20491;-59
2022/02/15 03:11:03;;;;;;;11.07;2.40;;;5.70;99.90;;;;;;5008427;28;20041;-58
2022/02/15 03:13:29;;;;;;;15.85;2.65;;;5.70;99.90;;;;;;5028993;28;20025;-60
2022/02/15 03:15:54;;;;;;;8.20;2.53;;;5.80;99.90;;;;;;5023715;28;20033;-60
2022/02/15 03:18:20;;;;;;;5.70;2.38;;;5.80;99.90;;;;;;5024868;28;20029;-58
2022/02/15 03:20:45;;;;;;;5.95;2.20;;;5.80;99.90;;;;;;5024515;28;20228;-59
2022/02/15 03:23:11;;;;;;;8.20;2.40;;;5.80;99.90;;;;;;5017348;28;20049;-59
2022/02/15 03:25:36;;;;;;;9.75;2.08;;;5.80;99.90;;;;;;5010346;28;20026;-59
2022/02/15 03:28:02;;;;;;;13.27;2.35;;;5.90;99.90;;;;;;5021712;28;20487;-60
2022/02/15 03:30:28;;;;;;;11.82;2.30;;;5.90;99.90;;;;;;5016536;28;20038;-60
2022/02/15 03:32:54;;;;;;;10.75;2.83;;;5.90;99.90;;;;;;5012412;28;20026;-60
2022/02/15 03:35:19;;;;;;;7.90;2.35;;;6.00;99.90;;;;;;5023107;28;20425;-59
2022/02/15 03:37:45;;;;;;;7.15;2.15;;;6.00;99.90;;;;;;5020979;28;20578;-58
2022/02/15 03:40:11;;;;;;;7.25;2.67;;;6.10;99.90;;;;;;5025242;28;20048;-60
2022/02/15 03:45:21;;;;;;;7.88;2.88;;;6.10;99.90;;;;;;5024036;28;20033;-60
2022/02/15 03:47:47;;;;;;;6.90;2.63;;;6.10;99.90;;;;;;5026949;28;20026;-58
2022/02/15 03:50:12;;;;;;;10.60;3.17;;;6.10;99.90;;;;;;5047848;28;20124;-59
2022/02/15 03:52:38;;;;;;;15.32;4.20;;;6.10;99.90;;;;;;5022063;28;20419;-59
2022/02/15 03:55:05;;;;;;;10.52;2.83;;;6.10;99.90;;;;;;5031491;28;20090;-59
2022/02/15 03:57:35;;;;;;;8.80;3.25;;;6.10;99.90;;;;;;5025811;28;20036;-59
2022/02/15 04:00:02;;;;;;;12.57;4.18;;;6.10;99.90;;;;;;5030057;28;20028;-60
2022/02/15 04:02:28;;;;;;;9.68;3.67;;;6.10;99.90;;;;;;5026975;28;20106;-60
2022/02/15 04:04:54;;;;;;;11.93;3.95;;;6.10;99.90;;;;;;5029424;28;20137;-59
2022/02/15 04:07:19;;;;;;;10.20;3.78;;;6.10;99.90;;;;;;5029244;28;20021;-58
2022/02/15 04:09:45;;;;;;;10.40;4.05;;;6.10;99.90;;;;;;5031013;28;20029;-59
2022/02/15 04:12:10;;;;;;;9.13;4.00;;;6.10;99.90;;;;;;5018474;28;20065;-59
2022/02/15 04:14:36;;;;;;;11.07;3.88;;;6.00;99.90;;;;;;5040278;28;20052;-59
2022/02/15 04:17:01;;;;;;;8.70;3.72;;;6.00;99.90;;;;;;5037792;28;20402;-58
2022/02/15 04:19:27;;;;;;;8.50;4.53;;;5.90;99.90;;;;;;5033259;28;20558;-60
2022/02/15 04:21:53;;;;;;;10.60;4.38;;;5.90;99.90;;;;;;5032572;28;20029;-59
2022/02/15 04:24:18;;;;;;;10.80;4.18;;;5.90;99.90;;;;;;5045099;28;20127;-59
2022/02/15 04:26:44;;;;;;;10.80;4.25;;;5.90;99.90;;;;;;5043146;28;20035;-62
2022/02/15 04:29:09;;;;;;;9.23;3.85;;;5.90;99.90;;;;;;5042574;28;20033;-56
2022/02/15 04:31:35;;;;;;;13.60;5.82;;;5.80;99.90;;;;;;5037951;28;20037;-59
2022/02/15 04:34:00;;;;;;;10.68;4.00;;;5.80;99.90;;;;;;5040509;28;20405;-61
2022/02/15 04:36:26;;;;;;;9.15;4.40;;;5.80;99.90;;;;;;5040157;28;20355;-60
2022/02/15 04:38:51;;;;;;;12.52;5.10;;;5.90;99.90;;;;;;5044255;28;20030;-59
2022/02/15 04:41:17;;;;;;;12.55;4.65;;;5.90;99.90;;;;;;5042265;28;20025;-59
2022/02/15 04:43:43;;;;;;;12.10;4.38;;;5.90;99.90;;;;;;5042716;28;20029;-60
2022/02/15 04:46:08;;;;;;;10.63;4.63;;;5.90;99.90;;;;;;5041431;28;20024;-60
2022/02/15 04:48:34;;;;;;;17.02;5.25;;;5.90;99.90;;;;;;5034752;28;20391;-59
2022/02/15 04:50:59;;;;;;;12.73;5.00;;;5.90;99.90;;;;;;5037980;28;20080;-59
2022/02/15 04:53:25;;;;;;;13.52;5.65;;;5.90;99.90;;;;;;5041823;28;20029;-58
2022/02/15 04:55:50;;;;;;;11.60;5.13;;;5.90;99.90;;;;;;5035166;28;20024;-59
2022/02/15 04:58:16;;;;;;;13.23;6.00;;;5.90;99.90;;;;;;5042839;28;20044;-57
2022/02/15 05:00:42;;;;;;;11.63;5.82;;;6.00;99.90;;;;;;5037902;28;20025;-58
2022/02/15 05:03:07;;;;;;;14.85;5.78;;;6.00;99.90;;;;;;5033259;28;20525;-59
2022/02/15 05:05:33;;;;;;;15.13;6.45;;;6.00;99.90;;;;;;5037850;28;20048;-57
2022/02/15 05:07:59;;;;;;;23.52;8.55;;;6.00;99.90;;;;;;5036358;28;20076;-58
2022/02/15 05:10:25;;;;;;;20.42;6.68;;;6.00;99.90;;;;;;5041456;28;20028;-58
2022/02/15 05:12:50;;;;;;;15.13;7.10;;;6.00;99.90;;;;;;5039696;28;20045;-58
2022/02/15 05:15:16;;;;;;;14.00;7.18;;;6.00;99.90;;;;;;5031967;28;20111;-59
2022/02/15 05:17:44;;;;;;;14.65;6.78;;;5.90;99.90;;;;;;5033568;28;20025;-56
2022/02/15 05:20:12;;;;;;;19.98;7.45;;;5.90;99.90;;;;;;5034378;28;20029;-55
2022/02/15 05:22:38;;;;;;;16.73;7.53;;;6.00;99.90;;;;;;5039941;28;20064;-58
2022/02/15 05:25:04;;;;;;;21.63;8.95;;;5.90;99.90;;;;;;5040697;28;20014;-58
2022/02/15 05:27:30;;;;;;;18.27;9.23;;;6.00;99.90;;;;;;5039942;28;20029;-59
2022/02/15 05:29:55;;;;;;;12.80;7.60;;;6.00;99.90;;;;;;5036027;28;20094;-58
2022/02/15 05:32:21;;;;;;;16.52;7.82;;;6.00;99.90;;;;;;5037375;28;20026;-59
2022/02/15 05:34:47;;;;;;;18.80;7.93;;;6.00;99.90;;;;;;5032458;28;20041;-58
2022/02/15 05:37:12;;;;;;;16.65;8.73;;;6.00;99.90;;;;;;5040899;28;20075;-58
2022/02/15 05:39:39;;;;;;;23.38;9.85;;;6.00;99.90;;;;;;5039198;28;20379;-59
2022/02/15 05:42:06;;;;;;;18.33;8.52;;;6.10;99.90;;;;;;5036032;28;20490;-58
2022/02/15 05:44:31;;;;;;;20.55;10.25;;;6.10;99.90;;;;;;5035691;28;20013;-58
2022/02/15 05:46:57;;;;;;;27.38;12.85;;;6.10;99.90;;;;;;5040606;28;20024;-58
2022/02/15 05:49:23;;;;;;;28.20;13.18;;;6.10;99.90;;;;;;5036483;28;20390;-58
2022/02/15 05:51:48;;;;;;;14.27;9.15;;;6.10;99.90;;;;;;5035160;28;20032;-59
2022/02/15 05:54:14;;;;;;;21.70;10.98;;;6.10;99.90;;;;;;5042108;28;20057;-59
2022/02/15 05:56:39;;;;;;;26.35;9.60;;;6.10;99.90;;;;;;5037149;28;20028;-58
2022/02/15 05:59:05;;;;;;;15.75;8.25;;;6.00;99.90;;;;;;5040007;28;20482;-57
2022/02/15 06:01:31;;;;;;;18.33;7.78;;;6.00;99.90;;;;;;5036238;28;20128;-59
2022/02/15 06:04:11;;;;;;;16.38;8.98;;;6.00;99.90;;;;;;5037990;28;20024;-59
2022/02/15 06:06:39;;;;;;;19.65;8.80;;;6.00;99.90;;;;;;5038784;28;20028;-59
2022/02/15 06:09:05;;;;;;;15.27;9.02;;;5.90;99.90;;;;;;5039229;28;20040;-53
2022/02/15 06:11:30;;;;;;;18.05;9.43;;;5.90;99.90;;;;;;5036369;28;20074;-58
2022/02/15 06:13:57;;;;;;;29.02;11.75;;;5.90;99.90;;;;;;5036718;28;20476;-59
2022/02/15 06:16:24;;;;;;;19.88;10.40;;;5.90;99.90;;;;;;5037764;28;20104;-59
2022/02/15 06:18:55;;;;;;;19.25;11.02;;;6.00;99.90;;;;;;5044305;28;20030;-58
2022/02/15 06:21:21;;;;;;;19.60;11.38;;;6.00;99.90;;;;;;5037128;28;20061;-57
2022/02/15 06:23:46;;;;;;;20.52;9.02;;;5.90;99.90;;;;;;5036204;28;20525;-58
2022/02/15 06:26:12;;;;;;;18.80;11.20;;;5.90;99.90;;;;;;5046661;28;20055;-59
2022/02/15 06:28:37;;;;;;;16.00;8.93;;;5.90;99.90;;;;;;5039647;28;20032;-61
2022/02/15 06:31:03;;;;;;;14.63;8.85;;;5.90;99.90;;;;;;5039654;28;20497;-57
2022/02/15 06:33:28;;;;;;;16.10;10.02;;;5.90;99.90;;;;;;5052795;28;20513;-61
2022/02/15 06:35:54;;;;;;;16.80;9.57;;;5.90;99.90;;;;;;5046037;28;20600;-56
2022/02/15 06:38:19;;;;;;;26.58;9.15;;;5.90;99.90;;;;;;5037984;28;20557;-59
2022/02/15 06:40:45;;;;;;;18.75;9.15;;;5.90;99.90;;;;;;5043994;28;20466;-60
2022/02/15 06:43:10;;;;;;;16.38;8.73;;;6.00;99.90;;;;;;5042168;28;20045;-60
2022/02/15 06:45:37;;;;;;;16.88;9.07;;;6.00;99.90;;;;;;5035815;28;20109;-57
2022/02/15 06:48:03;;;;;;;17.80;9.02;;;6.00;99.90;;;;;;5040261;28;20037;-58
2022/02/15 06:50:28;;;;;;;18.83;9.43;;;6.00;99.90;;;;;;5047439;28;20029;-60
2022/02/15 06:52:54;;;;;;;19.33;8.15;;;6.00;99.90;;;;;;5035734;28;20025;-59
2022/02/15 06:55:19;;;;;;;29.50;10.23;;;6.00;99.90;;;;;;5034373;28;20053;-58
2022/02/15 06:57:45;;;;;;;16.98;10.10;;;6.00;99.90;;;;;;5036027;28;20040;-59
2022/02/15 07:00:11;;;;;;;16.98;9.02;;;6.00;99.90;;;;;;5034489;28;20372;-60
2022/02/15 07:02:36;;;;;;;21.42;9.90;;;6.00;99.90;;;;;;5031171;28;20025;-58
2022/02/15 07:05:02;;;;;;;17.08;10.45;;;6.00;99.90;;;;;;5032796;28;20037;-60
2022/02/15 07:07:28;;;;;;;16.95;9.95;;;6.00;99.90;;;;;;5034012;28;20031;-60
2022/02/15 07:09:54;;;;;;;20.55;11.07;;;6.00;99.90;;;;;;5044448;28;20108;-56
2022/02/15 07:12:20;;;;;;;21.98;9.45;;;6.00;99.90;;;;;;5039619;28;20025;-59
2022/02/15 07:14:46;;;;;;;24.40;11.27;;;6.00;99.90;;;;;;5039097;28;20025;-59
2022/02/15 07:17:12;;;;;;;46.25;21.45;;;6.00;99.90;;;;;;5037234;28;20087;-52
2022/02/15 07:19:37;;;;;;;33.38;16.38;;;6.00;99.90;;;;;;5045079;28;20041;-60
2022/02/15 07:22:04;;;;;;;67.28;25.67;;;6.00;99.90;;;;;;5039216;28;20025;-60
2022/02/15 07:24:29;;;;;;;32.35;15.27;;;6.00;99.90;;;;;;5033391;28;20394;-59
2022/02/15 07:26:55;;;;;;;43.20;18.20;;;6.00;99.90;;;;;;5035419;28;20075;-59
2022/02/15 07:29:21;;;;;;;45.67;20.92;;;6.00;99.90;;;;;;5043300;28;20033;-59
2022/02/15 07:31:48;;;;;;;27.63;13.07;;;6.10;99.90;;;;;;5049610;28;20108;-59
2022/02/15 07:34:14;;;;;;;25.00;14.05;;;6.10;99.90;;;;;;5041182;28;20506;-58
2022/02/15 07:36:40;;;;;;;21.25;11.88;;;6.10;99.90;;;;;;5036288;28;20043;-60
2022/02/15 07:39:05;;;;;;;47.58;18.88;;;6.00;99.90;;;;;;5050248;28;20397;-60
2022/02/15 07:41:31;;;;;;;27.00;15.88;;;6.00;99.90;;;;;;5048195;28;20025;-60
2022/02/15 07:43:57;;;;;;;24.67;14.00;;;6.00;99.90;;;;;;5041923;28;20029;-59
2022/02/15 07:46:23;;;;;;;31.20;17.50;;;5.90;99.90;;;;;;5041270;28;20039;-59
2022/02/15 07:48:49;;;;;;;35.33;19.08;;;5.90;99.90;;;;;;5046746;28;20021;-60
2022/02/15 07:51:18;;;;;;;29.88;17.38;;;5.90;99.90;;;;;;5042176;28;20071;-59
2022/02/15 07:53:44;;;;;;;34.67;17.35;;;6.00;99.90;;;;;;5041535;28;20025;-60
2022/02/15 07:56:10;;;;;;;32.90;17.67;;;6.00;99.90;;;;;;5044913;28;20382;-60
2022/02/15 07:58:36;;;;;;;34.13;18.02;;;6.00;99.90;;;;;;5037574;28;20025;-60
2022/02/15 08:01:02;;;;;;;52.22;28.38;;;6.10;99.90;;;;;;5038279;28;20039;-60
2022/02/15 08:03:28;;;;;;;30.85;19.75;;;6.00;99.90;;;;;;5042648;28;20037;-60
2022/02/15 08:05:54;;;;;;;38.63;22.55;;;6.10;99.90;;;;;;5038015;28;20498;-61
2022/02/15 08:08:20;;;;;;;38.50;21.02;;;6.10;99.90;;;;;;5035321;28;20069;-59
2022/02/15 08:10:47;;;;;;;41.53;21.10;;;6.20;99.90;;;;;;5043194;28;20028;-58
2022/02/15 08:13:21;;;;;;;66.38;26.77;;;6.20;99.90;;;;;;5044956;28;20482;-54
2022/02/15 08:15:49;;;;;;;78.97;31.05;;;6.10;99.90;;;;;;5035529;28;20482;-59
2022/02/15 08:18:15;;;;;;;45.38;21.50;;;6.20;99.90;;;;;;5038660;28;20037;-59
2022/02/15 08:20:41;;;;;;;45.67;21.90;;;6.10;99.90;;;;;;5042794;28;20039;-58
2022/02/15 08:23:07;;;;;;;36.67;18.73;;;6.10;99.90;;;;;;5041112;28;20104;-59
2022/02/15 08:25:34;;;;;;;29.42;14.70;;;6.20;99.90;;;;;;5046476;28;20568;-57
2022/02/15 08:27:59;;;;;;;22.30;10.95;;;6.20;99.90;;;;;;5045509;28;20033;-59
2022/02/15 08:30:25;;;;;;;16.27;9.82;;;6.30;99.90;;;;;;5037159;28;20043;-57
2022/02/15 08:32:51;;;;;;;36.15;17.08;;;6.30;99.90;;;;;;5037649;28;20036;-58
2022/02/15 08:35:17;;;;;;;38.53;20.15;;;6.30;99.90;;;;;;5045315;28;20402;-59
2022/02/15 08:37:43;;;;;;;83.28;33.78;;;6.40;99.90;;;;;;5043887;28;20846;-58
2022/02/15 08:40:12;;;;;;;46.60;23.52;;;6.40;99.90;;;;;;5041716;28;20047;-58
2022/02/15 08:42:38;;;;;;;53.15;26.23;;;6.40;99.90;;;;;;5045089;28;20075;-58
2022/02/15 08:45:06;;;;;;;50.97;23.02;;;6.50;99.90;;;;;;5045234;28;20028;-59
2022/02/15 08:47:32;;;;;;;80.15;32.80;;;6.60;99.90;;;;;;5042830;28;20558;-58
2022/02/15 08:49:58;;;;;;;72.28;26.80;;;6.60;99.90;;;;;;5044365;28;20032;-57
2022/02/15 08:52:24;;;;;;;78.28;29.52;;;6.60;99.90;;;;;;5042183;28;20033;-58
2022/02/15 08:54:53;;;;;;;63.40;27.42;;;6.60;99.90;;;;;;5035968;28;20026;-58
2022/02/15 08:57:20;;;;;;;40.42;18.25;;;6.60;99.90;;;;;;5038550;28;20120;-58
2022/02/15 08:59:45;;;;;;;28.02;15.63;;;6.70;99.90;;;;;;5045446;28;20033;-59
2022/02/15 09:02:11;;;;;;;58.88;22.90;;;6.80;99.90;;;;;;5040669;28;20517;-59
2022/02/15 09:04:37;;;;;;;32.70;15.55;;;6.90;99.90;;;;;;5038756;28;20037;-59
2022/02/15 09:07:04;;;;;;;32.55;16.23;;;7.00;99.90;;;;;;5045984;28;20029;-59
2022/02/15 09:09:29;;;;;;;32.22;16.83;;;7.20;99.90;;;;;;5043027;28;20037;-58
2022/02/15 09:11:55;;;;;;;18.85;11.02;;;7.30;99.90;;;;;;5043351;28;20025;-58
2022/02/15 09:14:20;;;;;;;25.55;14.07;;;7.40;99.90;;;;;;5046246;28;20167;-59
2022/02/15 09:16:46;;;;;;;19.17;10.63;;;7.40;99.90;;;;;;5034508;28;20033;-59
2022/02/15 09:19:12;;;;;;;24.70;14.50;;;7.30;99.90;;;;;;5037206;28;20109;-52
2022/02/15 09:21:39;;;;;;;17.42;9.48;;;7.30;99.90;;;;;;5043022;28;20044;-58
2022/02/15 09:24:05;;;;;;;22.20;10.48;;;7.30;99.90;;;;;;5047353;28;20033;-59
2022/02/15 09:26:31;;;;;;;21.00;9.45;;;7.30;99.90;;;;;;5031381;28;20021;-59
2022/02/15 09:28:57;;;;;;;20.15;10.93;;;7.30;99.90;;;;;;5031913;28;20116;-58
2022/02/15 09:31:24;;;;;;;14.85;9.75;;;7.40;99.90;;;;;;5034531;28;20542;-59
2022/02/15 09:33:52;;;;;;;17.30;9.88;;;7.60;99.90;;;;;;5034202;28;20021;-57
2022/02/15 09:36:22;;;;;;;19.58;10.65;;;7.60;99.90;;;;;;5036000;28;20034;-60
2022/02/15 09:38:48;;;;;;;18.20;9.38;;;7.70;99.90;;;;;;5039180;28;20537;-58
2022/02/15 09:41:15;;;;;;;21.50;11.13;;;7.70;99.90;;;;;;5035589;28;20037;-54
2022/02/15 09:43:40;;;;;;;14.35;8.43;;;7.80;99.90;;;;;;5038697;28;20431;-59
2022/02/15 09:46:14;;;;;;;14.25;7.90;;;7.70;99.90;;;;;;5036835;28;20049;-59
2022/02/15 09:48:41;;;;;;;14.57;9.20;;;7.60;99.90;;;;;;5043652;28;20044;-59
2022/02/15 09:51:08;;;;;;;14.35;8.63;;;7.60;99.90;;;;;;5041942;28;20037;-60
2022/02/15 09:53:34;;;;;;;15.80;8.48;;;7.60;99.90;;;;;;5044837;28;20033;-59
2022/02/15 09:56:00;;;;;;;18.50;9.95;;;7.60;99.90;;;;;;5044598;28;20025;-59
2022/02/15 09:58:25;;;;;;;18.92;9.70;;;7.50;99.90;;;;;;5036065;28;20033;-60
2022/02/15 10:00:52;;;;;;;21.38;10.25;;;7.50;99.90;;;;;;5034091;28;20147;-60
2022/02/15 10:03:18;;;;;;;16.23;8.50;;;7.50;99.90;;;;;;5040598;28;20064;-59
2022/02/15 10:05:48;;;;;;;20.50;9.32;;;7.50;99.90;;;;;;5034350;28;20060;-59
2022/02/15 10:08:14;;;;;;;17.98;7.90;;;7.40;99.90;;;;;;5042346;28;20486;-60
2022/02/15 10:10:40;;;;;;;14.55;8.20;;;7.40;99.90;;;;;;5036920;28;20029;-59
2022/02/15 10:13:08;;;;;;;15.18;7.70;;;7.40;99.90;;;;;;5038673;28;20102;-60
2022/02/15 10:15:37;;;;;;;13.70;8.68;;;7.30;99.90;;;;;;5037521;28;20132;-60
2022/02/15 10:18:12;;;;;;;17.98;7.30;;;7.30;99.90;;;;;;5041057;28;20033;-60
2022/02/15 10:20:42;;;;;;;15.95;6.57;;;7.20;99.90;;;;;;5036455;28;20029;-60
2022/02/15 10:23:21;;;;;;;9.15;5.55;;;7.20;99.90;;;;;;5038428;28;20506;-60
2022/02/15 10:25:50;;;;;;;13.13;6.32;;;7.20;99.90;;;;;;5037655;28;20024;-60
2022/02/15 10:28:24;;;;;;;15.57;5.85;;;7.20;99.90;;;;;;5036697;28;20029;-59
2022/02/15 10:30:55;;;;;;;15.18;6.13;;;7.20;99.90;;;;;;5032775;28;20104;-60
2022/02/15 10:33:29;;;;;;;13.20;6.10;;;7.10;99.90;;;;;;5033955;28;20029;-60
2022/02/15 10:36:02;;;;;;;17.42;7.13;;;7.10;99.90;;;;;;5032495;28;20446;-60
2022/02/15 10:38:33;;;;;;;18.37;7.97;;;7.30;99.90;;;;;;5033569;28;20084;-58
2022/02/15 10:41:05;;;;;;;21.27;11.32;;;7.50;99.90;;;;;;5037551;28;20283;-59
2022/02/15 10:43:42;;;;;;;25.17;13.15;;;7.60;99.90;;;;;;5039261;28;20060;-59
2022/02/15 10:46:10;;;;;;;25.77;11.43;;;7.80;99.90;;;;;;5035996;28;20113;-60
2022/02/15 10:48:36;;;;;;;25.42;11.38;;;7.90;99.90;;;;;;5032835;28;20025;-59
2022/02/15 10:51:03;;;;;;;13.63;7.95;;;8.10;99.90;;;;;;5045160;28;20031;-59
2022/02/15 10:53:30;;;;;;;11.65;7.28;;;8.20;99.90;;;;;;5046330;28;20427;-58
2022/02/15 10:55:57;;;;;;;16.58;8.38;;;8.10;99.90;;;;;;5035721;28;20479;-60
2022/02/15 10:58:26;;;;;;;16.75;7.78;;;8.10;99.90;;;;;;5035370;28;20021;-60
2022/02/15 11:00:52;;;;;;;13.45;5.68;;;8.20;99.90;;;;;;5016432;28;20041;-59
2022/02/15 11:03:21;;;;;;;17.80;9.15;;;8.00;99.90;;;;;;5017877;28;20087;-59
2022/02/15 11:05:48;;;;;;;16.05;6.80;;;8.00;99.90;;;;;;5028030;28;20061;-59
2022/02/15 11:08:14;;;;;;;16.80;6.95;;;7.80;99.90;;;;;;5037970;28;20047;-59
2022/02/15 11:11:09;;;;;;;25.80;9.02;;;7.70;99.90;;;;;;5036250;28;20040;-60
2022/02/15 11:13:38;;;;;;;18.15;8.82;;;7.70;99.90;;;;;;5028989;28;20045;-60
2022/02/15 11:16:32;;;;;;;9.70;5.70;;;7.90;99.90;;;;;;5033719;28;20446;-60
2022/02/15 11:19:08;;;;;;;20.88;10.15;;;7.90;99.90;;;;;;5037201;28;20041;-60
2022/02/15 11:21:33;;;;;;;16.42;5.70;;;7.80;99.90;;;;;;5053427;28;20037;-60
2022/02/15 11:24:01;;;;;;;13.02;5.18;;;7.80;99.90;;;;;;5050002;28;20083;-59
2022/02/15 11:26:41;;;;;;;15.65;4.63;;;7.80;99.90;;;;;;5031817;28;20028;-60
2022/02/15 11:29:25;;;;;;;9.95;5.15;;;8.00;99.90;;;;;;5035986;28;20083;-60
2022/02/15 11:31:53;;;;;;;6.15;3.03;;;8.10;99.90;;;;;;5040681;28;20031;-59
2022/02/15 11:34:31;;;;;;;9.20;3.80;;;8.00;99.90;;;;;;5029805;28;20037;-58
2022/02/15 11:36:57;;;;;;;7.32;3.05;;;8.00;99.90;;;;;;5040053;28;20045;-60
2022/02/15 11:39:28;;;;;;;5.32;2.58;;;8.00;99.90;;;;;;5039568;28;20160;-60
2022/02/15 11:41:58;;;;;;;10.50;4.10;;;8.00;99.90;;;;;;5033685;28;20121;-59
2022/02/15 11:44:29;;;;;;;6.60;3.08;;;8.10;99.90;;;;;;5038388;28;20044;-59
2022/02/15 11:46:54;;;;;;;6.53;3.88;;;8.10;99.90;;;;;;5031038;28;20029;-60
2022/02/15 11:49:23;;;;;;;9.25;3.88;;;8.20;99.90;;;;;;5031957;28;20572;-59
2022/02/15 11:51:49;;;;;;;10.85;4.30;;;8.00;99.90;;;;;;5043201;28;20420;-60
2022/02/15 11:54:17;;;;;;;10.32;3.95;;;8.00;99.90;;;;;;5040451;28;20568;-60
2022/02/15 11:56:50;;;;;;;7.97;3.90;;;8.00;99.90;;;;;;5030912;28;20033;-59
2022/02/15 11:59:19;;;;;;;8.43;3.65;;;7.90;99.90;;;;;;5042012;28;20111;-60
2022/02/15 12:02:01;;;;;;;8.88;4.80;;;7.90;99.90;;;;;;5036626;28;20055;-59
2022/02/15 12:04:27;;;;;;;13.88;5.05;;;8.10;99.90;;;;;;5041527;28;20047;-61
2022/02/15 12:06:54;;;;;;;11.63;4.72;;;8.00;99.90;;;;;;5037628;28;20779;-60
2022/02/15 12:09:30;;;;;;;13.55;7.68;;;8.10;99.90;;;;;;5037690;28;20051;-60
2022/02/15 12:11:58;;;;;;;10.18;4.05;;;8.20;99.90;;;;;;5043259;28;20036;-59
2022/02/15 12:14:25;;;;;;;12.55;5.07;;;8.30;99.90;;;;;;5040139;28;20107;-60
2022/02/15 12:16:59;;;;;;;16.13;4.93;;;8.30;99.90;;;;;;5042740;28;20013;-60
2022/02/15 12:19:36;;;;;;;11.65;5.13;;;8.30;99.90;;;;;;5038465;28;20029;-58
2022/02/15 12:22:05;;;;;;;6.82;3.47;;;8.40;99.90;;;;;;5035400;28;20048;-60
2022/02/15 12:24:32;;;;;;;10.60;3.88;;;8.30;99.90;;;;;;5044640;28;20021;-58
2022/02/15 12:27:08;;;;;;;12.80;4.30;;;8.30;99.90;;;;;;5042299;28;20080;-60
2022/02/15 12:29:35;;;;;;;9.52;4.13;;;8.20;99.90;;;;;;5036639;28;21696;-59
2022/02/15 12:32:03;;;;;;;9.45;3.83;;;8.20;99.90;;;;;;5036639;28;20044;-60
2022/02/15 12:34:29;;;;;;;6.63;2.95;;;8.10;99.90;;;;;;5040995;28;20483;-60
2022/02/15 12:36:55;;;;;;;15.07;6.63;;;8.00;99.90;;;;;;5039757;28;20112;-60
2022/02/15 12:39:29;;;;;;;9.45;3.35;;;8.00;99.90;;;;;;5037530;28;20060;-60
2022/02/15 12:41:55;;;;;;;21.00;8.73;;;8.10;99.90;;;;;;5046107;28;20072;-58
2022/02/15 12:44:20;;;;;;;22.35;11.02;;;8.20;99.90;;;;;;5051847;28;20499;-60
2022/02/15 12:46:46;;;;;;;8.15;3.35;;;8.40;99.90;;;;;;5025696;28;20443;-59
2022/02/15 12:49:12;;;;;;;6.57;3.75;;;8.60;99.90;;;;;;5026000;28;20077;-54
2022/02/15 12:51:38;;;;;;;12.05;4.43;;;8.70;99.90;;;;;;5029175;28;20108;-58